logo
Search for airport 
image banner adimage banner adimage banner ad
image banner ad

EHM004 - Middenmeer

Located in , Netherlands

ICAO - , IATA -

Data provided by Airmate  

General information

Coordinates: N52°48'57" E5°1'22"
Elevation is feet MSL.
 
View others Airports in Noord-Holland

Operational data

Special qualification required
Current time UTC:
Current local time:
Weather at : EHKD - Den Helder/De Kooy ( 20 km )
METAR: EHKD 220355Z AUTO 23010KT 200V260 9999 OVC080 15/13 Q1009 BLU
TAF: TAF EHKD 220018Z 2201/2213 24008KT 6000 BR NSC
View NOTAMs / SUP AIP / TFR affecting this airport [VIEW]
Communications frequencies: [VIEW]

Runways:

Airport contact information

Address: Netherlands

Satellite view of EHM004